Time;durP1;ratioP1;P1;durP2;ratioP2;P2;SDS_P1;SDS_P2;PMS_P1;PMS_P2;Temp;Humidity;BMP_temperature;BMP_pressure;BME280_temperature;BME280_humidity;BME280_pressure;Samples;Min_cycle;Max_cycle;Signal;HPM_P1;HPM_P2
2022/11/30 00:00:26;;;;;;;424.48;78.22;;;6.60;99.90;;;5.44;100.00;97595.00;5112346;28;20428;-75
2022/11/30 00:02:52;;;;;;;431.15;74.75;;;6.60;99.90;;;5.39;100.00;97596.66;5111309;28;20465;-75
2022/11/30 00:05:19;;;;;;;343.27;64.93;;;6.50;99.90;;;5.39;100.00;97600.09;5112266;28;20393;-74
2022/11/30 00:07:45;;;;;;;403.90;69.63;;;6.50;99.90;;;5.39;100.00;97592.22;5093908;28;20412;-75
2022/11/30 00:10:12;;;;;;;331.97;60.37;;;6.50;99.90;;;5.41;100.00;97592.00;5112024;28;20392;-75
2022/11/30 00:12:41;;;;;;;295.95;57.33;;;6.60;99.90;;;5.42;100.00;97593.59;5111693;28;20400;-75
2022/11/30 00:15:11;;;;;;;410.45;71.32;;;6.60;99.90;;;5.43;100.00;97588.13;5111697;28;20921;-74
2022/11/30 00:17:37;;;;;;;430.08;73.43;;;6.60;99.90;;;5.42;100.00;97589.16;5093659;28;20400;-74
2022/11/30 00:20:05;;;;;;;383.00;66.78;;;6.60;99.90;;;5.41;100.00;97587.53;5111821;28;20826;-74
2022/11/30 00:22:31;;;;;;;410.30;67.10;;;6.50;99.90;;;5.41;100.00;97586.75;5111453;28;20423;-74
2022/11/30 00:24:59;;;;;;;361.05;64.55;;;6.50;99.90;;;5.40;100.00;97595.66;5110948;28;20392;-74
2022/11/30 00:27:26;;;;;;;469.13;73.80;;;6.60;99.90;;;5.39;100.00;97592.22;5111780;28;20808;-74
2022/11/30 00:29:52;;;;;;;407.95;67.53;;;6.50;99.90;;;5.39;100.00;97586.97;5111699;28;20893;-74
2022/11/30 00:32:19;;;;;;;386.27;68.30;;;6.50;99.90;;;5.41;100.00;97589.38;5111436;28;20432;-74
2022/11/30 00:34:45;;;;;;;330.40;63.47;;;6.50;99.90;;;5.43;100.00;97589.94;5110490;28;20404;-74
2022/11/30 00:37:10;;;;;;;390.23;68.00;;;6.50;99.90;;;5.42;100.00;97590.97;5111424;28;20392;-74
2022/11/30 00:39:36;;;;;;;375.25;65.80;;;6.50;99.90;;;5.40;100.00;97580.69;5111370;28;20416;-74
2022/11/30 00:42:03;;;;;;;417.02;73.93;;;6.50;99.90;;;5.40;100.00;97575.44;5111340;28;20435;-74
2022/11/30 00:44:28;;;;;;;388.35;71.40;;;6.60;99.90;;;5.40;100.00;97585.16;5110569;28;20871;-74
2022/11/30 00:46:54;;;;;;;401.02;71.25;;;6.50;99.90;;;5.40;100.00;97585.94;5111405;28;20398;-74
2022/11/30 00:49:22;;;;;;;386.58;71.13;;;6.50;99.90;;;5.37;100.00;97591.63;5111427;28;20450;-74
2022/11/30 00:51:47;;;;;;;343.10;63.75;;;6.50;99.90;;;5.33;100.00;97587.81;5092668;28;20898;-74
2022/11/30 00:54:13;;;;;;;316.23;64.10;;;6.50;99.90;;;5.34;100.00;97592.03;5110380;28;20499;-74
2022/11/30 00:56:39;;;;;;;378.87;67.10;;;6.50;99.90;;;5.34;100.00;97592.03;5111173;28;20423;-74
2022/11/30 00:59:05;;;;;;;414.65;81.53;;;6.50;99.90;;;5.38;100.00;97587.16;5092822;28;20416;-74
2022/11/30 01:01:31;;;;;;;368.70;69.32;;;6.50;99.90;;;5.34;100.00;97589.41;5110945;28;20407;-74
2022/11/30 01:03:57;;;;;;;372.02;68.82;;;6.50;99.90;;;5.33;100.00;97587.81;5110293;28;20862;-74
2022/11/30 01:06:24;;;;;;;378.75;69.50;;;6.40;99.90;;;5.32;100.00;97591.47;5110751;28;20428;-74
2022/11/30 01:08:50;;;;;;;305.13;60.78;;;6.40;99.90;;;5.33;100.00;97590.44;5110174;28;20774;-74
2022/11/30 01:11:20;;;;;;;367.20;67.63;;;6.40;99.90;;;5.31;100.00;97595.09;5110863;28;20409;-74
2022/11/30 01:13:46;;;;;;;431.25;72.10;;;6.40;99.90;;;5.32;100.00;97595.91;5110021;28;20415;-74
2022/11/30 01:16:15;;;;;;;337.27;63.25;;;6.40;99.90;;;5.31;100.00;97589.84;5110830;28;20400;-74
2022/11/30 01:18:42;;;;;;;399.48;74.50;;;6.40;99.90;;;5.31;100.00;97596.91;5110753;28;20425;-73
2022/11/30 01:21:12;;;;;;;400.02;70.22;;;6.40;99.90;;;5.30;100.00;97593.47;5110512;28;20408;-74
2022/11/30 01:23:40;;;;;;;307.55;59.25;;;6.40;99.90;;;5.30;100.00;97595.31;5109913;28;20538;-73
2022/11/30 01:26:06;;;;;;;430.55;73.50;;;6.40;99.90;;;5.30;100.00;97600.56;5110994;28;20400;-73
2022/11/30 01:28:33;;;;;;;324.42;62.17;;;6.50;99.90;;;5.29;100.00;97605.00;5110641;28;20924;-73
2022/11/30 01:31:01;;;;;;;404.98;67.00;;;6.50;99.90;;;5.30;100.00;97603.19;5110309;28;20400;-74
2022/11/30 01:33:27;;;;;;;287.20;55.87;;;6.40;99.90;;;5.29;100.00;97599.75;5110150;28;20393;-73
2022/11/30 01:36:01;;;;;;;373.70;66.40;;;6.40;99.90;;;5.32;100.00;97604.59;5112182;28;20499;-74
2022/11/30 01:38:31;;;;;;;396.45;69.57;;;6.40;99.90;;;5.31;100.00;97610.84;5111604;28;20459;-73
2022/11/30 01:40:59;;;;;;;425.30;68.72;;;6.40;99.90;;;5.30;100.00;97606.59;5111567;28;20403;-74
2022/11/30 01:43:37;;;;;;;377.42;64.18;;;6.40;99.90;;;5.31;100.00;97616.09;5109550;28;20400;-74
2022/11/30 01:46:04;;;;;;;382.67;68.25;;;6.50;99.90;;;5.32;100.00;97614.28;5110471;28;20438;-74
2022/11/30 01:48:30;;;;;;;375.75;63.78;;;6.40;99.90;;;5.31;100.00;97618.72;5110402;28;20400;-74
2022/11/30 01:50:57;;;;;;;429.75;67.80;;;6.50;99.90;;;5.31;100.00;97617.91;5110199;28;20483;-74
2022/11/30 01:53:23;;;;;;;445.20;68.90;;;6.40;99.90;;;5.30;100.00;97617.09;5091170;28;20747;-74
2022/11/30 01:55:49;;;;;;;367.30;62.55;;;6.40;99.90;;;5.31;100.00;97605.59;5110303;28;20388;-74
2022/11/30 01:58:24;;;;;;;393.83;66.05;;;6.50;99.90;;;5.31;100.00;97610.84;5110186;28;20408;-74
2022/11/30 02:00:50;;;;;;;336.50;60.27;;;6.40;99.90;;;5.30;100.00;97614.47;5110164;28;20869;-75
2022/11/30 02:03:23;;;;;;;427.17;73.82;;;6.50;99.90;;;5.29;100.00;97612.06;5109304;28;20400;-74
2022/11/30 02:05:49;;;;;;;428.47;72.47;;;6.40;99.90;;;5.28;100.00;97618.31;5091939;28;20947;-73
2022/11/30 02:08:17;;;;;;;404.88;65.65;;;6.40;99.90;;;5.28;100.00;97610.44;5110170;28;20506;-73
2022/11/30 02:10:50;;;;;;;414.75;70.68;;;6.40;99.90;;;5.26;100.00;97615.13;5110030;28;20403;-73
2022/11/30 02:13:42;;;;;;;382.13;65.07;;;6.40;99.90;;;5.28;100.00;97616.50;5109197;28;20400;-73
2022/11/30 02:16:21;;;;;;;423.70;74.30;;;6.40;99.90;;;5.29;100.00;97617.31;5110190;28;20399;-73
2022/11/30 02:19:02;;;;;;;411.67;70.82;;;6.40;99.90;;;5.25;100.00;97611.69;5110115;28;20499;-74
2022/11/30 02:21:40;;;;;;;343.63;61.88;;;6.40;99.90;;;5.27;100.00;97621.94;5113919;28;20882;-74
2022/11/30 02:24:49;;;;;;;361.98;65.20;;;6.40;99.90;;;5.26;100.00;97615.13;5113391;28;20393;-74
2022/11/30 02:27:37;;;;;;;371.67;61.53;;;6.40;99.90;;;5.26;100.00;97609.88;5114103;28;20389;-74
2022/11/30 02:30:08;;;;;;;306.73;56.60;;;6.40;99.90;;;5.28;100.00;97615.69;5114101;28;20393;-74
2022/11/30 02:32:41;;;;;;;408.58;63.92;;;6.40;99.90;;;5.28;100.00;97621.75;5113897;28;20946;-74
2022/11/30 02:35:10;;;;;;;380.00;61.15;;;6.40;99.90;;;5.28;100.00;97618.31;5113807;28;20392;-74
2022/11/30 02:37:38;;;;;;;358.02;59.00;;;6.40;99.90;;;5.29;100.00;97609.44;5113838;28;20396;-74
2022/11/30 02:40:08;;;;;;;348.38;63.17;;;6.40;99.90;;;5.29;100.00;97612.88;5113765;28;20408;-74
2022/11/30 02:42:34;;;;;;;333.08;55.42;;;6.40;99.90;;;5.29;100.00;97620.75;5113616;28;20396;-75
2022/11/30 02:45:01;;;;;;;346.73;62.97;;;6.40;99.90;;;5.27;100.00;97614.88;5113064;28;20404;-75
2022/11/30 02:47:36;;;;;;;300.92;56.75;;;6.40;99.90;;;5.26;100.00;97608.03;5113802;28;20404;-75
2022/11/30 02:50:10;;;;;;;294.70;54.17;;;6.40;99.90;;;5.28;100.00;97613.06;5113706;28;20392;-75
2022/11/30 02:52:36;;;;;;;337.88;58.72;;;6.40;99.90;;;5.27;100.00;97616.72;5113271;28;20403;-75
2022/11/30 02:55:06;;;;;;;214.47;47.03;;;6.40;99.90;;;5.26;100.00;97615.91;5112951;28;20537;-75
2022/11/30 02:57:31;;;;;;;277.27;52.08;;;6.40;99.90;;;5.28;100.00;97620.94;5113505;28;20396;-75
2022/11/30 02:59:59;;;;;;;280.58;53.65;;;6.40;99.90;;;5.27;100.00;97620.13;5112157;28;20450;-75
2022/11/30 03:02:26;;;;;;;299.65;52.13;;;6.40;99.90;;;5.26;100.00;97621.16;5113293;28;20431;-74
2022/11/30 03:04:53;;;;;;;247.95;48.22;;;6.40;99.90;;;5.28;100.00;97611.25;5094312;28;20400;-75
2022/11/30 03:07:19;;;;;;;332.88;60.30;;;6.40;99.90;;;5.26;100.00;97608.03;5113420;28;20407;-75
2022/11/30 03:09:45;;;;;;;315.52;55.75;;;6.40;99.90;;;5.24;100.00;97617.94;5113266;28;20396;-75
2022/11/30 03:12:10;;;;;;;317.30;55.42;;;6.40;99.90;;;5.24;100.00;97615.31;5113067;28;20410;-75
2022/11/30 03:14:36;;;;;;;321.23;54.05;;;6.40;99.90;;;5.24;100.00;97620.56;5093986;28;20761;-75
2022/11/30 03:17:03;;;;;;;261.90;48.80;;;6.40;99.90;;;5.25;100.00;97618.75;5113172;28;20457;-75
2022/11/30 03:19:28;;;;;;;291.97;51.00;;;6.40;99.90;;;5.25;100.00;97622.19;5113106;28;20770;-75
2022/11/30 03:21:56;;;;;;;313.75;52.45;;;6.40;99.90;;;5.26;100.00;97629.03;5112908;28;20419;-75
2022/11/30 03:24:22;;;;;;;267.00;48.50;;;6.40;99.90;;;5.27;100.00;97633.25;5112222;28;20803;-75
2022/11/30 03:26:48;;;;;;;262.13;47.40;;;6.40;99.90;;;5.28;100.00;97636.69;5113012;28;20488;-75
2022/11/30 03:29:13;;;;;;;281.17;50.00;;;6.40;99.90;;;5.28;100.00;97634.88;5112918;28;20393;-75
2022/11/30 03:31:39;;;;;;;309.15;55.72;;;6.40;99.90;;;5.27;100.00;97630.63;5111910;28;20487;-75
2022/11/30 03:34:05;;;;;;;268.73;49.67;;;6.40;99.90;;;5.25;100.00;97631.88;5112037;28;20396;-74
2022/11/30 03:36:31;;;;;;;217.52;45.80;;;6.40;99.90;;;5.23;100.00;97632.09;5112750;28;20420;-75
2022/11/30 03:38:59;;;;;;;191.90;41.97;;;6.30;99.90;;;5.23;100.00;97629.47;5112634;28;20947;-75
2022/11/30 03:41:24;;;;;;;241.95;48.80;;;6.40;99.90;;;5.22;100.00;97630.47;5112592;28;20915;-75
2022/11/30 03:43:50;;;;;;;285.08;52.33;;;6.30;99.90;;;5.21;100.00;97625.44;5111682;28;20483;-75
2022/11/30 03:46:16;;;;;;;250.05;45.83;;;6.40;99.90;;;5.18;100.00;97621.44;5112540;28;20399;-75
2022/11/30 03:48:42;;;;;;;254.47;46.50;;;6.30;99.90;;;5.19;100.00;97625.63;5112630;28;20432;-75
2022/11/30 03:51:10;;;;;;;255.43;46.75;;;6.40;99.90;;;5.19;100.00;97627.47;5120207;27;20473;-75
2022/11/30 03:53:36;;;;;;;248.52;46.05;;;6.30;99.90;;;5.20;100.00;97634.31;5132127;27;20385;-74
2022/11/30 03:56:07;;;;;;;235.98;45.17;;;6.30;99.90;;;5.20;100.00;97632.50;5133019;27;20394;-75
2022/11/30 03:58:33;;;;;;;198.32;40.92;;;6.30;99.90;;;5.21;100.00;97636.72;5132846;27;20416;-75
2022/11/30 04:01:01;;;;;;;276.75;47.97;;;6.30;99.90;;;5.20;100.00;97629.06;5132735;27;20476;-75
2022/11/30 04:03:28;;;;;;;242.80;48.17;;;6.30;99.90;;;5.19;100.00;97632.72;5113537;27;20749;-75
2022/11/30 04:05:54;;;;;;;187.10;40.42;;;6.30;99.90;;;5.18;100.00;97634.53;5132706;27;20401;-75
2022/11/30 04:08:20;;;;;;;301.60;49.67;;;6.30;99.90;;;5.17;100.00;97630.31;5132672;27;20395;-75
2022/11/30 04:10:46;;;;;;;218.88;41.55;;;6.30;99.90;;;5.18;100.00;97637.16;5132647;27;21004;-75
2022/11/30 04:13:14;;;;;;;277.20;46.33;;;6.30;99.90;;;5.19;100.00;97633.50;5131745;27;20399;-75
2022/11/30 04:15:40;;;;;;;238.52;47.35;;;6.30;99.90;;;5.22;100.00;97632.28;5132565;27;20384;-75
2022/11/30 04:18:05;;;;;;;291.08;51.08;;;6.30;99.90;;;5.21;100.00;97626.22;5132589;27;20882;-75
2022/11/30 04:20:31;;;;;;;272.52;48.38;;;6.30;99.90;;;5.19;100.00;97628.25;5132405;27;20386;-75
2022/11/30 04:22:57;;;;;;;249.77;44.73;;;6.40;99.90;;;5.19;100.00;97638.75;5131481;27;20482;-75
2022/11/30 04:25:23;;;;;;;318.27;49.97;;;6.30;99.90;;;5.19;100.00;97638.75;5132417;27;20474;-75
2022/11/30 04:27:49;;;;;;;245.43;45.28;;;6.30;99.90;;;5.20;100.00;97639.56;5132401;27;20409;-75
2022/11/30 04:30:17;;;;;;;224.05;42.92;;;6.30;99.90;;;5.20;100.00;97639.56;5132190;27;20386;-75
2022/11/30 04:32:42;;;;;;;220.20;41.88;;;6.30;99.90;;;5.20;100.00;97637.75;5131603;27;20410;-75
2022/11/30 04:35:10;;;;;;;202.90;42.83;;;6.30;99.90;;;5.21;100.00;97635.94;5131932;27;20405;-75
2022/11/30 04:37:36;;;;;;;213.63;43.92;;;6.30;99.90;;;5.19;100.00;97633.50;5132174;27;20926;-75
2022/11/30 04:40:04;;;;;;;271.63;47.10;;;6.30;99.90;;;5.21;100.00;97635.94;5132130;27;20410;-75
2022/11/30 04:42:31;;;;;;;231.15;43.05;;;6.30;99.90;;;5.20;100.00;97640.38;5131261;27;20407;-75
2022/11/30 04:44:56;;;;;;;267.70;48.00;;;6.30;99.90;;;5.22;100.00;97645.41;5130734;27;20394;-75
2022/11/30 04:47:24;;;;;;;171.82;37.58;;;6.30;99.90;;;5.21;100.00;97641.97;5131768;27;20490;-75
2022/11/30 04:49:50;;;;;;;288.17;48.70;;;6.30;99.90;;;5.21;100.00;97639.34;5094742;28;20478;-74
2022/11/30 04:52:16;;;;;;;191.23;39.72;;;6.30;99.90;;;5.20;100.00;97629.88;5115403;22;20909;-74
2022/11/30 04:54:42;;;;;;;250.27;45.20;;;6.30;99.90;;;5.18;100.00;97637.16;5109453;28;20385;-74
2022/11/30 04:57:08;;;;;;;323.58;52.10;;;6.30;99.90;;;5.17;100.00;97634.75;5110591;28;20445;-74
2022/11/30 04:59:33;;;;;;;206.30;44.15;;;6.30;99.90;;;5.16;100.00;97633.94;5110329;28;20921;-73
2022/11/30 05:01:59;;;;;;;298.70;49.60;;;6.30;99.90;;;5.16;100.00;97630.50;5104350;28;20911;-74
2022/11/30 05:04:27;;;;;;;240.27;44.60;;;6.30;99.90;;;5.16;100.00;97635.75;5088767;28;20397;-73
2022/11/30 05:06:52;;;;;;;202.60;41.33;;;6.30;99.90;;;5.17;100.00;97632.94;5090236;28;20509;-74
2022/11/30 05:09:18;;;;;;;228.00;44.22;;;6.30;99.90;;;5.18;100.00;97641.63;5090693;28;20485;-74
2022/11/30 05:11:45;;;;;;;198.10;42.65;;;6.30;99.90;;;5.19;100.00;97637.97;5089733;28;20487;-74
2022/11/30 05:14:11;;;;;;;187.60;40.43;;;6.30;99.90;;;5.21;100.00;97647.22;5089117;28;20420;-74
2022/11/30 05:16:37;;;;;;;223.07;45.08;;;6.30;99.90;;;5.20;100.00;97645.63;5089084;28;20450;-75
2022/11/30 05:19:03;;;;;;;213.10;42.03;;;6.30;99.90;;;5.21;100.00;97641.97;5087898;28;20421;-74
2022/11/30 05:21:30;;;;;;;241.90;45.73;;;6.40;99.90;;;5.21;100.00;97646.41;5086354;28;20446;-74
2022/11/30 05:23:56;;;;;;;252.00;50.97;;;6.30;99.90;;;5.20;100.00;97643.00;5086798;28;20396;-74
2022/11/30 05:26:22;;;;;;;252.10;47.37;;;6.30;99.90;;;5.19;100.00;97651.09;5088243;28;20485;-75
2022/11/30 05:28:48;;;;;;;258.30;49.80;;;6.30;99.90;;;5.18;100.00;97646.84;5088022;28;20495;-75
2022/11/30 05:31:14;;;;;;;222.03;44.10;;;6.30;99.90;;;5.17;100.00;97651.31;5089630;28;20488;-75
2022/11/30 05:33:40;;;;;;;277.88;48.35;;;6.30;99.90;;;5.17;100.00;97645.25;5088378;28;20413;-75
2022/11/30 05:36:07;;;;;;;251.98;45.67;;;6.30;99.90;;;5.18;100.00;97652.91;5089732;28;20394;-74
2022/11/30 05:38:34;;;;;;;288.05;49.28;;;6.30;99.90;;;5.19;100.00;97658.97;5090146;28;20396;-74
2022/11/30 05:41:01;;;;;;;227.00;43.28;;;6.30;99.90;;;5.18;100.00;97652.09;5089939;28;20421;-75
2022/11/30 05:43:27;;;;;;;248.82;45.13;;;6.30;99.90;;;5.20;100.00;97657.94;5089241;28;20399;-74
2022/11/30 05:46:00;;;;;;;238.60;43.53;;;6.30;99.90;;;5.21;100.00;97659.53;5090120;28;20427;-73
2022/11/30 05:48:27;;;;;;;199.55;38.90;;;6.40;99.90;;;5.21;100.00;97657.72;5089958;28;25150;-74
2022/11/30 05:50:53;;;;;;;206.50;40.28;;;6.40;99.90;;;5.23;100.00;97660.16;5089907;28;20399;-74
2022/11/30 05:53:19;;;;;;;216.10;41.05;;;6.40;99.90;;;5.23;100.00;97663.56;5070853;28;20489;-74
2022/11/30 05:55:46;;;;;;;155.27;36.40;;;6.40;99.90;;;5.24;100.00;97661.75;5089568;28;20429;-74
2022/11/30 05:58:12;;;;;;;239.13;43.85;;;6.40;99.90;;;5.23;100.00;97663.56;5089970;28;20493;-74
2022/11/30 06:00:38;;;;;;;234.95;42.40;;;6.40;99.90;;;5.24;100.00;97662.56;5088020;28;20447;-74
2022/11/30 06:03:04;;;;;;;195.77;36.60;;;6.40;99.90;;;5.24;100.00;97661.75;5088731;28;20909;-76
2022/11/30 06:05:35;;;;;;;175.45;37.67;;;6.40;99.90;;;5.24;100.00;97656.50;5089474;28;20843;-76
2022/11/30 06:08:01;;;;;;;199.00;42.22;;;6.40;99.90;;;5.23;100.00;97662.78;5089506;28;20401;-79
2022/11/30 06:10:26;;;;;;;203.15;44.45;;;6.30;99.90;;;5.22;100.00;97658.53;5089237;28;20485;-73
2022/11/30 06:12:54;;;;;;;244.32;44.50;;;6.40;99.90;;;5.21;100.00;97654.28;5088331;28;20806;-72
2022/11/30 06:15:20;;;;;;;226.57;44.33;;;6.30;99.90;;;5.19;100.00;97658.97;5089647;28;21174;-72
2022/11/30 06:17:45;;;;;;;204.43;42.00;;;6.30;99.90;;;5.17;100.00;97651.31;5089626;28;20490;-73
2022/11/30 06:20:13;;;;;;;223.37;41.13;;;6.30;99.90;;;5.17;100.00;97655.75;5089379;28;20823;-72
2022/11/30 06:22:39;;;;;;;189.98;37.92;;;6.30;99.90;;;5.18;100.00;97658.16;5089524;28;20409;-71
2022/11/30 06:25:05;;;;;;;200.73;37.08;;;6.30;99.90;;;5.19;100.00;97659.75;5088481;28;20485;-72
2022/11/30 06:27:31;;;;;;;195.60;39.27;;;6.30;99.90;;;5.20;100.00;97653.50;5090009;28;20867;-72
2022/11/30 06:29:59;;;;;;;184.90;36.13;;;6.30;99.90;;;5.22;100.00;97655.91;5089181;28;20397;-72
2022/11/30 06:32:25;;;;;;;174.07;35.38;;;6.30;99.90;;;5.23;100.00;97655.72;5089145;28;20409;-74
2022/11/30 06:34:50;;;;;;;183.23;36.50;;;6.30;99.90;;;5.24;100.00;97657.31;5090746;28;20493;-73
2022/11/30 06:37:16;;;;;;;204.00;40.00;;;6.40;99.90;;;5.26;100.00;97654.50;5090965;28;20405;-73
2022/11/30 06:39:42;;;;;;;199.30;40.30;;;6.40;99.90;;;5.23;100.00;97652.28;5090925;28;20493;-73
2022/11/30 06:42:08;;;;;;;155.15;36.85;;;6.30;99.90;;;5.25;100.00;97660.75;5087611;28;20394;-74
2022/11/30 06:44:34;;;;;;;204.63;40.42;;;6.40;99.90;;;5.22;100.00;97659.34;5087813;28;20996;-74
2022/11/30 06:47:01;;;;;;;193.15;39.67;;;6.30;99.90;;;5.22;100.00;97659.34;5086166;28;20398;-74
2022/11/30 06:49:27;;;;;;;211.73;39.08;;;6.30;99.90;;;5.22;100.00;97661.16;5088915;28;20391;-74
2022/11/30 06:51:53;;;;;;;229.63;43.10;;;6.40;99.90;;;5.22;100.00;97661.97;5088811;28;20409;-74
2022/11/30 06:54:19;;;;;;;204.77;38.55;;;6.30;99.90;;;5.21;100.00;97660.34;5088526;28;20483;-74
2022/11/30 06:56:45;;;;;;;232.20;41.58;;;6.30;99.90;;;5.22;100.00;97667.22;5089082;28;20432;-74
2022/11/30 06:59:11;;;;;;;206.93;40.13;;;6.40;99.90;;;5.24;100.00;97667.00;5088702;28;20410;-73
2022/11/30 07:01:37;;;;;;;206.77;41.28;;;6.40;99.90;;;5.23;100.00;97668.03;5088379;28;20944;-75
2022/11/30 07:04:04;;;;;;;257.98;43.17;;;6.40;99.90;;;5.22;100.00;97664.59;5087735;28;20426;-74
2022/11/30 07:06:30;;;;;;;221.60;42.80;;;6.40;99.90;;;5.23;100.00;97666.19;5083201;28;20826;-75
2022/11/30 07:08:56;;;;;;;199.57;40.60;;;6.40;99.90;;;5.23;100.00;97668.81;5086817;28;20534;-75
2022/11/30 07:11:22;;;;;;;178.77;38.97;;;6.30;99.90;;;5.27;100.00;97671.81;5088907;28;20879;-75
2022/11/30 07:13:48;;;;;;;245.60;45.00;;;6.40;99.90;;;5.25;100.00;97666.00;5091048;28;20394;-75
2022/11/30 07:16:14;;;;;;;265.03;46.60;;;6.40;99.90;;;5.24;100.00;97670.44;5092252;28;20475;-75
2022/11/30 07:18:40;;;;;;;227.88;42.15;;;6.40;99.90;;;5.24;100.00;97670.44;5092383;28;20437;-73
2022/11/30 07:21:08;;;;;;;210.30;41.47;;;6.30;99.90;;;5.25;100.00;97671.25;5092256;28;20410;-75
2022/11/30 07:26:19;;;;;;;224.80;40.87;;;6.40;99.90;;;5.29;100.00;97667.19;5092308;28;20402;-73
2022/11/30 07:28:46;;;;;;;182.15;39.40;;;6.40;99.90;;;5.29;100.00;97675.03;5090042;28;20513;-74
2022/11/30 07:31:14;;;;;;;155.98;36.13;;;6.40;99.90;;;5.31;100.00;97673.03;5092186;28;20442;-72
2022/11/30 07:33:41;;;;;;;164.27;37.40;;;6.40;99.90;;;5.33;100.00;97676.25;5091454;28;20474;-74
2022/11/30 07:36:09;;;;;;;190.80;37.87;;;6.40;99.90;;;5.32;100.00;97679.88;5092120;28;20406;-75
2022/11/30 07:38:35;;;;;;;236.13;41.85;;;6.40;99.90;;;5.33;100.00;97679.69;5091987;28;20401;-74
2022/11/30 07:41:01;;;;;;;178.93;38.30;;;6.40;99.90;;;5.34;100.00;97683.09;5091805;28;20405;-74
2022/11/30 07:43:27;;;;;;;180.00;36.88;;;6.40;99.90;;;5.33;100.00;97677.06;5083515;28;20915;-73
2022/11/30 07:45:53;;;;;;;190.57;37.53;;;6.50;99.90;;;5.36;100.00;97675.81;5091812;28;20398;-73
2022/11/30 07:48:20;;;;;;;216.70;39.50;;;6.50;99.90;;;5.37;100.00;97680.06;5092066;28;20402;-74
2022/11/30 07:50:47;;;;;;;215.82;39.90;;;6.50;99.90;;;5.37;100.00;97674.81;5073817;28;20451;-73
2022/11/30 07:53:15;;;;;;;161.93;34.87;;;6.50;99.90;;;5.38;100.00;97676.41;5090801;28;20402;-74
2022/11/30 07:55:41;;;;;;;168.48;38.08;;;6.50;99.90;;;5.40;100.00;97684.91;5091493;28;20472;-72
2022/11/30 07:58:08;;;;;;;171.43;34.35;;;6.50;99.90;;;5.39;100.00;97678.84;5090501;28;20492;-74
2022/11/30 08:00:35;;;;;;;244.67;41.27;;;6.50;99.90;;;5.38;100.00;97687.72;5091584;28;20407;-75
2022/11/30 08:03:01;;;;;;;271.80;44.53;;;6.50;99.90;;;5.39;100.00;97691.16;5086329;28;20425;-74
2022/11/30 08:05:27;;;;;;;247.45;41.33;;;6.50;99.90;;;5.38;100.00;97692.16;5073465;28;20413;-74
2022/11/30 08:07:53;;;;;;;220.82;40.38;;;6.50;99.90;;;5.39;100.00;97699.03;5090669;28;20493;-73
2022/11/30 08:10:22;;;;;;;236.55;42.40;;;6.50;99.90;;;5.40;100.00;97695.41;5088766;28;20467;-74
2022/11/30 08:12:49;;;;;;;214.75;40.63;;;6.50;99.90;;;5.39;100.00;97694.59;5094163;28;20530;-75
2022/11/30 08:15:15;;;;;;;251.20;46.08;;;6.50;99.90;;;5.41;100.00;97700.41;5090852;28;20451;-74
2022/11/30 08:17:41;;;;;;;195.85;39.13;;;6.50;99.90;;;5.42;100.00;97699.41;5091818;28;20406;-73
2022/11/30 08:20:10;;;;;;;217.70;43.25;;;6.50;99.90;;;5.45;100.00;97704.25;5091810;28;20419;-74
2022/11/30 08:22:36;;;;;;;208.93;41.15;;;6.60;99.90;;;5.49;100.00;97701.22;5090759;28;20408;-73
2022/11/30 08:25:03;;;;;;;206.30;40.43;;;6.60;99.90;;;5.52;100.00;97708.66;5090111;28;20402;-74
2022/11/30 08:27:30;;;;;;;206.17;41.70;;;6.60;99.90;;;5.55;100.00;97710.88;5087118;28;20481;-75
2022/11/30 08:29:56;;;;;;;215.13;41.50;;;6.70;99.90;;;5.57;100.00;97704.38;5078657;28;20401;-74
2022/11/30 08:32:42;;;;;;;213.13;41.83;;;6.70;99.90;;;5.60;100.00;97709.22;5072463;28;20762;-73
2022/11/30 08:35:08;;;;;;;237.85;44.08;;;6.70;99.90;;;5.63;100.00;97710.63;5097978;28;20408;-72
2022/11/30 08:37:36;;;;;;;195.52;42.40;;;6.70;99.90;;;5.66;100.00;97715.44;5090782;28;20398;-74
2022/11/30 08:40:04;;;;;;;183.40;39.92;;;6.70;99.90;;;5.68;100.00;97716.03;5090673;28;20432;-75
2022/11/30 08:42:32;;;;;;;193.13;38.55;;;6.80;99.90;;;5.69;100.00;97713.19;5090437;28;20394;-75
2022/11/30 08:44:58;;;;;;;207.98;41.15;;;6.80;99.90;;;5.71;100.00;97716.41;5089642;28;20473;-74
2022/11/30 08:47:24;;;;;;;247.45;46.90;;;6.80;99.90;;;5.71;100.00;97713.78;5072381;28;20489;-74
2022/11/30 08:49:49;;;;;;;214.93;44.10;;;6.80;99.90;;;5.72;100.00;97715.38;5090473;28;20807;-74
2022/11/30 08:52:15;;;;;;;198.98;41.70;;;6.80;99.90;;;5.76;100.00;97721.84;5069266;28;20485;-75
2022/11/30 08:54:43;;;;;;;239.02;45.85;;;6.80;99.90;;;5.76;100.00;97716.59;5089273;28;20402;-74
2022/11/30 08:57:09;;;;;;;216.63;42.00;;;6.80;99.90;;;5.79;100.00;97723.22;5090148;28;20760;-75
2022/11/30 08:59:37;;;;;;;227.90;47.70;;;6.90;99.90;;;5.79;100.00;97723.22;5090210;28;20449;-73
2022/11/30 09:02:03;;;;;;;256.70;49.22;;;6.90;99.90;;;5.75;100.00;97722.84;5089700;28;20408;-74
2022/11/30 09:04:29;;;;;;;181.18;39.75;;;6.80;99.90;;;5.79;100.00;97724.03;5088159;28;20398;-73
2022/11/30 09:06:57;;;;;;;241.48;47.40;;;6.90;99.90;;;5.76;100.00;97726.28;5090348;28;20413;-76
2022/11/30 09:09:24;;;;;;;233.98;44.25;;;6.80;99.90;;;5.80;100.00;97725.63;5092033;28;20437;-73
2022/11/30 09:11:50;;;;;;;202.90;39.70;;;6.90;99.90;;;5.85;100.00;97725.03;5085542;28;20468;-75
2022/11/30 09:14:16;;;;;;;206.50;40.63;;;6.90;99.90;;;5.89;100.00;97728.84;5089623;28;20402;-75
2022/11/30 09:16:43;;;;;;;218.57;44.77;;;7.00;99.90;;;5.87;100.00;97728.22;5085378;28;20450;-73
2022/11/30 09:19:09;;;;;;;214.75;43.95;;;7.00;99.90;;;5.88;100.00;97724.59;5087365;28;20900;-73
2022/11/30 09:21:35;;;;;;;239.43;44.87;;;7.00;99.90;;;5.91;100.00;97726.81;5089828;28;20406;-73
2022/11/30 09:24:02;;;;;;;232.93;43.53;;;7.00;99.90;;;5.96;100.00;97729.59;5089058;28;20401;-73
2022/11/30 09:26:27;;;;;;;250.55;45.35;;;7.00;99.90;;;6.01;100.00;97731.63;5088380;28;20493;-73
2022/11/30 09:28:53;;;;;;;191.85;36.47;;;7.10;99.90;;;6.09;100.00;97731.34;5089109;28;20401;-73
2022/11/30 09:31:21;;;;;;;205.20;39.38;;;7.10;99.90;;;6.11;100.00;97737.19;5080865;28;20396;-73
2022/11/30 09:33:49;;;;;;;240.18;42.78;;;7.20;99.90;;;6.14;100.00;97737.56;5068831;28;20414;-74
2022/11/30 09:36:18;;;;;;;215.52;42.08;;;7.20;99.90;;;6.21;100.00;97740.16;5051862;28;20403;-75
2022/11/30 09:38:45;;;;;;;222.20;40.30;;;7.20;99.90;;;6.26;100.00;97732.41;5083161;28;20437;-76
2022/11/30 09:41:52;;;;;;;224.45;41.15;;;7.30;99.90;;;6.32;100.00;97733.38;5089741;28;20390;-76
2022/11/30 09:44:24;;;;;;;219.73;39.70;;;7.40;99.90;;;6.35;100.00;97738.22;5089188;28;20401;-75
2022/11/30 09:47:00;;;;;;;222.48;40.03;;;7.40;99.90;;;6.35;100.00;97732.94;5089795;28;20401;-76
2022/11/30 09:49:33;;;;;;;223.10;40.30;;;7.40;99.90;;;6.34;100.00;97739.22;5089935;28;20793;-75
2022/11/30 09:52:03;;;;;;;203.15;39.53;;;7.40;99.90;;;6.31;100.00;97737.84;5089620;28;20409;-75
2022/11/30 09:54:35;;;;;;;200.23;40.37;;;7.40;99.90;;;6.27;100.00;97739.28;5089071;28;20794;-75
2022/11/30 09:57:08;;;;;;;220.75;41.40;;;7.40;99.90;;;6.25;100.00;97743.94;5089879;28;20422;-75
2022/11/30 09:59:37;;;;;;;220.75;39.58;;;7.30;99.90;;;6.21;100.00;97732.25;5071867;28;20414;-75
2022/11/30 10:02:15;;;;;;;240.60;42.30;;;7.30;99.90;;;6.22;100.00;97734.69;5089638;28;20485;-76
2022/11/30 10:04:43;;;;;;;204.55;38.60;;;7.30;99.90;;;6.22;100.00;97732.06;5089110;28;20768;-77
2022/11/30 10:07:26;;;;;;;189.65;36.83;;;7.30;99.90;;;6.26;100.00;97736.88;5089760;28;20860;-75
2022/11/30 10:10:00;;;;;;;215.13;42.60;;;7.30;99.90;;;6.26;100.00;97727.16;5089787;28;20409;-75